createdAt,value
2022-09-22T00:01:20.624Z,68.99
2022-09-22T00:04:23.242Z,69.27
2022-09-22T00:07:25.945Z,68.51
2022-09-22T00:10:29.068Z,67.75
2022-09-22T00:13:33.728Z,69.79
2022-09-22T00:16:39.858Z,69.46
2022-09-22T00:19:42.581Z,69.33
2022-09-22T00:22:45.239Z,68.64
2022-09-22T00:25:48.299Z,69.94
2022-09-22T00:28:53.257Z,69.63
2022-09-22T00:31:56.708Z,69.12
2022-09-22T00:34:59.306Z,69.57
2022-09-22T00:38:01.986Z,68.40
2022-09-22T00:41:05.789Z,67.61
2022-09-22T00:44:39.498Z,66.78
2022-09-22T00:47:45.608Z,68.20
2022-09-22T00:50:49.614Z,69.02
2022-09-22T00:53:54.063Z,68.47
2022-09-22T00:57:05.306Z,68.61
2022-09-22T01:00:12.315Z,68.65
2022-09-22T01:03:19.140Z,68.41
2022-09-22T01:06:26.853Z,68.17
2022-09-22T01:09:33.108Z,67.73
2022-09-22T01:12:37.921Z,68.17
2022-09-22T01:15:50.178Z,68.41
2022-09-22T01:19:09.154Z,66.68
2022-09-22T01:22:29.276Z,68.64
2022-09-22T01:25:59.978Z,68.65
2022-09-22T01:29:24.127Z,68.21
2022-09-22T01:32:31.429Z,67.52
2022-09-22T01:35:43.654Z,68.13
2022-09-22T01:38:55.360Z,67.98
2022-09-22T01:42:02.615Z,66.69
2022-09-22T01:45:09.807Z,67.32
2022-09-22T01:48:19.068Z,67.36
2022-09-22T01:51:27.182Z,67.18
2022-09-22T01:54:34.234Z,67.15
2022-09-22T01:57:44.570Z,67.36
2022-09-22T02:00:53.522Z,67.20
2022-09-22T02:04:03.693Z,67.28
2022-09-22T02:07:09.841Z,67.03
2022-09-22T02:10:17.017Z,66.44
2022-09-22T02:13:20.119Z,67.16
2022-09-22T02:16:24.818Z,66.99
2022-09-22T02:19:34.131Z,66.80
2022-09-22T02:22:36.748Z,66.21
2022-09-22T02:25:41.713Z,67.09
2022-09-22T02:28:45.640Z,65.98
2022-09-22T02:31:50.412Z,67.42
2022-09-22T02:34:55.344Z,67.38
2022-09-22T02:38:05.871Z,66.70
2022-09-22T02:41:15.103Z,67.36
2022-09-22T02:44:22.600Z,66.83
2022-09-22T02:47:30.159Z,67.20
2022-09-22T02:50:35.549Z,67.08
2022-09-22T02:53:38.107Z,66.56
2022-09-22T02:56:40.829Z,66.73
2022-09-22T02:59:43.394Z,67.25
2022-09-22T03:02:46.104Z,67.12
2022-09-22T03:05:50.023Z,66.53
2022-09-22T03:08:53.661Z,65.71
2022-09-22T03:11:56.269Z,66.07
2022-09-22T03:14:58.971Z,66.61
2022-09-22T03:18:01.548Z,67.44
2022-09-22T03:21:05.985Z,67.32
2022-09-22T03:24:08.899Z,66.90
2022-09-22T03:27:11.583Z,67.24
2022-09-22T03:30:14.632Z,67.51
2022-09-22T03:33:17.279Z,67.36
2022-09-22T03:36:21.681Z,66.94
2022-09-22T03:39:24.258Z,67.41
2022-09-22T03:42:27.014Z,66.72
2022-09-22T03:45:29.590Z,66.64
2022-09-22T03:48:32.818Z,66.46
2022-09-22T03:51:39.380Z,66.46
2022-09-22T03:54:41.989Z,66.68
2022-09-22T03:57:44.716Z,63.22
2022-09-22T04:00:49.389Z,65.98
2022-09-22T04:03:52.105Z,66.90
2022-09-22T04:06:56.096Z,66.70
2022-09-22T04:09:58.920Z,66.75
2022-09-22T04:13:01.519Z,66.68
2022-09-22T04:16:04.184Z,66.51
2022-09-22T04:19:06.778Z,66.83
2022-09-22T04:22:10.698Z,66.79
2022-09-22T04:25:13.303Z,66.86
2022-09-22T04:28:15.862Z,66.63
2022-09-22T04:31:19.786Z,67.41
2022-09-22T04:34:22.452Z,66.90
2022-09-22T04:37:26.699Z,66.55
2022-09-22T04:40:30.197Z,65.99
2022-09-22T04:43:32.870Z,67.19
2022-09-22T04:46:35.640Z,67.08
2022-09-22T04:49:38.205Z,66.42
2022-09-22T04:52:46.463Z,66.84
2022-09-22T04:55:50.521Z,67.87
2022-09-22T04:58:53.196Z,66.59
2022-09-22T05:01:55.786Z,67.99
2022-09-22T05:04:58.492Z,67.56
2022-09-22T05:08:02.824Z,67.43
2022-09-22T05:11:08.242Z,66.05
2022-09-22T05:14:10.913Z,67.73
2022-09-22T05:17:14.031Z,67.83
2022-09-22T05:20:17.667Z,69.31
2022-09-22T05:23:21.569Z,69.66
2022-09-22T05:26:24.806Z,71.11
2022-09-22T05:29:28.243Z,70.29
2022-09-22T05:32:30.842Z,71.69
2022-09-22T05:35:36.820Z,71.19
2022-09-22T05:38:41.146Z,71.96
2022-09-22T05:41:43.727Z,71.29
2022-09-22T05:44:46.514Z,71.20
2022-09-22T05:47:49.450Z,71.92
2022-09-22T05:50:52.048Z,72.33
2022-09-22T05:53:56.490Z,72.73
2022-09-22T05:56:59.166Z,72.94
2022-09-22T06:00:02.423Z,71.82
2022-09-22T06:03:05.269Z,69.73
2022-09-22T06:06:07.964Z,69.15
2022-09-22T06:09:11.916Z,67.01
2022-09-22T06:12:14.499Z,66.57
2022-09-22T06:15:17.372Z,65.05
2022-09-22T06:18:24.421Z,64.65
2022-09-22T06:21:27.573Z,63.72
2022-09-22T06:24:31.546Z,63.42
2022-09-22T06:27:34.114Z,62.13
2022-09-22T06:30:40.221Z,61.78
2022-09-22T06:33:47.114Z,62.11
2022-09-22T06:36:50.082Z,59.18
2022-09-22T06:39:56.182Z,60.00
2022-09-22T06:42:59.711Z,58.92
2022-09-22T06:46:02.859Z,59.35
2022-09-22T06:49:05.835Z,57.42
2022-09-22T06:52:11.362Z,56.73
2022-09-22T06:55:19.342Z,56.32
2022-09-22T06:58:22.877Z,55.74
2022-09-22T07:01:27.505Z,54.77
2022-09-22T07:04:30.140Z,54.03
2022-09-22T07:07:35.315Z,56.65
2022-09-22T07:10:39.230Z,54.17
2022-09-22T07:13:43.818Z,53.34
2022-09-22T07:16:46.671Z,52.38
2022-09-22T07:19:51.392Z,51.66
2022-09-22T07:23:00.854Z,52.95
2022-09-22T07:26:05.921Z,51.73
2022-09-22T07:29:13.215Z,52.06
2022-09-22T07:32:15.989Z,50.71
2022-09-22T07:35:18.762Z,49.83
2022-09-22T07:38:21.552Z,50.19
2022-09-22T07:41:28.340Z,49.65
2022-09-22T07:44:48.641Z,49.96
2022-09-22T07:48:08.981Z,48.69
2022-09-22T07:51:18.336Z,49.55
2022-09-22T07:54:20.930Z,48.87
2022-09-22T07:57:25.040Z,49.70
2022-09-22T08:00:32.949Z,48.35
2022-09-22T08:03:36.197Z,48.81
2022-09-22T08:06:39.275Z,48.65
2022-09-22T08:09:41.901Z,48.81
2022-09-22T08:12:46.395Z,48.98
2022-09-22T08:15:56.086Z,48.89
2022-09-22T08:19:00.291Z,49.84
2022-09-22T08:22:03.533Z,51.97
2022-09-22T08:25:07.378Z,50.48
2022-09-22T08:28:12.472Z,50.67
2022-09-22T08:31:17.871Z,50.28
2022-09-22T08:34:22.566Z,49.21
2022-09-22T08:37:28.298Z,51.94
2022-09-22T08:40:31.455Z,49.91
2022-09-22T08:43:35.943Z,49.48
2022-09-22T08:46:44.107Z,51.28
2022-09-22T08:50:08.434Z,53.10
2022-09-22T08:53:16.055Z,50.74
2022-09-22T08:56:30.712Z,50.10
2022-09-22T08:59:39.677Z,51.41
2022-09-22T09:02:45.729Z,52.22
2022-09-22T09:06:00.428Z,50.03
2022-09-22T09:09:28.563Z,50.95
2022-09-22T09:12:44.402Z,50.76
2022-09-22T09:16:03.115Z,49.80
2022-09-22T09:19:12.690Z,49.37
2022-09-22T09:22:24.882Z,48.07
2022-09-22T09:25:35.999Z,47.83
2022-09-22T09:28:42.907Z,48.70
2022-09-22T09:31:52.515Z,48.70
2022-09-22T09:34:55.926Z,48.03
2022-09-22T09:38:01.342Z,46.27
2022-09-22T09:41:14.549Z,43.30
2022-09-22T09:44:21.169Z,43.75
2022-09-22T09:47:44.019Z,41.88
2022-09-22T09:50:46.755Z,42.58
2022-09-22T09:53:52.047Z,40.31
2022-09-22T09:57:10.291Z,40.97
2022-09-22T10:00:34.592Z,36.91
2022-09-22T10:03:46.850Z,37.20
2022-09-22T10:06:50.209Z,37.22
2022-09-22T10:09:54.726Z,37.44
2022-09-22T10:13:20.995Z,36.77
2022-09-22T10:16:24.657Z,35.92
2022-09-22T10:19:34.551Z,36.49
2022-09-22T10:22:39.745Z,36.27
2022-09-22T10:25:43.092Z,35.65
2022-09-22T10:28:51.014Z,34.21
2022-09-22T10:32:05.711Z,32.73
2022-09-22T10:35:28.019Z,33.89
2022-09-22T10:38:34.946Z,36.13
2022-09-22T10:41:39.346Z,35.60
2022-09-22T10:44:48.188Z,36.11
2022-09-22T10:47:57.998Z,36.88
2022-09-22T10:51:10.619Z,36.70
2022-09-22T10:54:35.987Z,35.08
2022-09-22T10:58:02.088Z,35.30
2022-09-22T11:01:22.194Z,33.12
2022-09-22T11:04:42.859Z,34.94
2022-09-22T11:08:19.665Z,33.88
2022-09-22T11:11:45.751Z,31.21
2022-09-22T11:15:18.371Z,31.74
2022-09-22T11:18:43.075Z,29.66
2022-09-22T11:21:57.304Z,31.13
2022-09-22T11:25:15.654Z,31.93
2022-09-22T11:28:34.851Z,29.54
2022-09-22T11:31:48.684Z,31.51
2022-09-22T11:35:15.305Z,29.86
2022-09-22T11:38:45.731Z,29.35
2022-09-22T11:42:02.570Z,30.03
2022-09-22T11:45:16.903Z,30.34
2022-09-22T11:48:35.617Z,29.88
2022-09-22T11:51:57.640Z,29.25
2022-09-22T11:55:15.939Z,28.48
2022-09-22T11:58:28.993Z,28.98
2022-09-22T12:01:38.050Z,29.49
2022-09-22T12:04:45.669Z,28.84
2022-09-22T12:07:55.667Z,28.80
2022-09-22T12:10:59.129Z,26.72
2022-09-22T12:14:23.467Z,28.36
2022-09-22T12:17:42.179Z,29.49
2022-09-22T12:20:55.307Z,30.18
2022-09-22T12:24:01.934Z,29.46
2022-09-22T12:27:12.270Z,28.54
2022-09-22T12:30:22.715Z,29.71
2022-09-22T12:33:27.318Z,29.93
2022-09-22T12:36:32.797Z,30.51
2022-09-22T12:39:41.873Z,30.05
2022-09-22T12:42:49.488Z,29.50
2022-09-22T12:45:55.959Z,29.41
2022-09-22T12:48:58.836Z,30.92
2022-09-22T12:52:01.640Z,30.84
2022-09-22T12:55:17.811Z,30.46
2022-09-22T12:58:40.343Z,31.07
2022-09-22T13:01:46.222Z,31.67
2022-09-22T13:05:23.736Z,31.98
2022-09-22T13:08:47.087Z,31.10
2022-09-22T13:12:25.468Z,29.79
2022-09-22T13:15:28.986Z,29.55
2022-09-22T13:18:38.174Z,29.98
2022-09-22T13:21:42.067Z,31.18
2022-09-22T13:24:44.969Z,31.11
2022-09-22T13:27:47.752Z,29.70
2022-09-22T13:31:03.438Z,30.69
2022-09-22T13:34:29.362Z,31.53
2022-09-22T13:37:32.353Z,31.04
2022-09-22T13:40:35.540Z,31.35
2022-09-22T13:43:40.668Z,32.64
2022-09-22T13:46:46.399Z,33.02
2022-09-22T13:49:54.053Z,31.09
2022-09-22T13:52:57.314Z,31.17
2022-09-22T13:56:01.175Z,32.18
2022-09-22T13:59:04.777Z,32.82
2022-09-22T14:02:10.822Z,34.06
2022-09-22T14:05:21.683Z,34.93
2022-09-22T14:08:28.939Z,35.81
2022-09-22T14:11:33.246Z,35.22
2022-09-22T14:14:35.972Z,36.30
2022-09-22T14:17:41.815Z,36.82
2022-09-22T14:20:46.580Z,37.47
2022-09-22T14:23:52.549Z,37.54
2022-09-22T14:27:03.795Z,37.73
2022-09-22T14:30:15.790Z,37.89
2022-09-22T14:33:23.330Z,40.28
2022-09-22T14:36:27.522Z,41.23
2022-09-22T14:39:34.166Z,43.78
2022-09-22T14:42:37.159Z,46.02
2022-09-22T14:45:57.635Z,46.56
2022-09-22T14:49:04.395Z,47.02
2022-09-22T14:52:16.120Z,47.33
2022-09-22T14:55:29.792Z,47.96
2022-09-22T14:58:40.261Z,48.48
2022-09-22T15:02:06.819Z,49.62
2022-09-22T15:05:11.771Z,49.56
2022-09-22T15:08:18.876Z,50.25
2022-09-22T15:11:21.486Z,49.68
2022-09-22T15:14:41.278Z,50.54
2022-09-22T15:18:02.734Z,50.26
2022-09-22T15:21:11.925Z,51.98
2022-09-22T15:24:21.121Z,52.75
2022-09-22T15:27:23.892Z,52.59
2022-09-22T15:30:26.957Z,52.45
2022-09-22T15:33:29.655Z,52.08
2022-09-22T15:36:33.839Z,52.18
2022-09-22T15:39:37.770Z,51.33
2022-09-22T15:43:02.286Z,51.57
2022-09-22T15:46:08.806Z,50.81
2022-09-22T15:49:15.121Z,52.16
2022-09-22T15:52:17.732Z,52.29
2022-09-22T15:55:24.167Z,53.62
2022-09-22T15:58:31.676Z,53.20
2022-09-22T16:01:34.540Z,53.56
2022-09-22T16:04:37.592Z,53.77
2022-09-22T16:07:42.170Z,53.64
2022-09-22T16:10:46.505Z,53.77
2022-09-22T16:13:49.154Z,54.06
2022-09-22T16:16:52.259Z,54.19
2022-09-22T16:19:55.035Z,54.74
2022-09-22T16:23:00.297Z,54.84
2022-09-22T16:26:06.691Z,55.15
2022-09-22T16:29:09.886Z,55.73
2022-09-22T16:32:12.585Z,55.99
2022-09-22T16:35:15.411Z,56.38
2022-09-22T16:38:18.021Z,56.60
2022-09-22T16:41:24.694Z,57.16
2022-09-22T16:44:27.325Z,57.58
2022-09-22T16:47:30.019Z,58.27
2022-09-22T16:50:32.736Z,58.61
2022-09-22T16:53:35.583Z,58.89
2022-09-22T16:56:39.972Z,59.21
2022-09-22T16:59:43.031Z,59.77
2022-09-22T17:02:46.889Z,59.95
2022-09-22T17:05:49.465Z,60.47
2022-09-22T17:08:52.920Z,60.98
2022-09-22T17:11:57.984Z,60.06
2022-09-22T17:15:00.714Z,60.25
2022-09-22T17:18:04.296Z,60.39
2022-09-22T17:21:08.912Z,61.00
2022-09-22T17:24:11.485Z,61.21
2022-09-22T17:27:15.466Z,60.87
2022-09-22T17:30:18.253Z,61.20
2022-09-22T17:33:21.547Z,61.86
2022-09-22T17:36:26.140Z,62.21
2022-09-22T17:39:30.578Z,62.09
2022-09-22T17:42:37.659Z,62.49
2022-09-22T17:45:40.299Z,62.39
2022-09-22T17:49:00.807Z,62.20
2022-09-22T17:52:21.465Z,62.86
2022-09-22T17:55:25.445Z,62.72
2022-09-22T17:58:29.418Z,62.76
2022-09-22T18:01:32.179Z,63.12
2022-09-22T18:04:34.834Z,63.21
2022-09-22T18:07:40.357Z,63.45
2022-09-22T18:10:46.406Z,64.02
2022-09-22T18:13:50.544Z,64.40
2022-09-22T18:16:53.888Z,64.81
2022-09-22T18:19:57.501Z,64.95
2022-09-22T18:23:00.450Z,64.91
2022-09-22T18:26:03.737Z,64.85
2022-09-22T18:29:10.053Z,65.11
2022-09-22T18:32:12.608Z,64.96
2022-09-22T18:35:16.035Z,65.13
2022-09-22T18:38:19.892Z,65.54
2022-09-22T18:41:23.148Z,66.01
2022-09-22T18:44:28.255Z,65.57
2022-09-22T18:47:30.905Z,65.40
2022-09-22T18:50:34.778Z,66.12
2022-09-22T18:53:37.815Z,66.04
2022-09-22T18:56:42.214Z,65.75
2022-09-22T18:59:46.185Z,66.13
2022-09-22T19:02:49.235Z,66.25
2022-09-22T19:05:52.034Z,66.41
2022-09-22T19:08:55.616Z,66.29
2022-09-22T19:11:58.729Z,66.30
2022-09-22T19:15:05.644Z,65.48
2022-09-22T19:18:09.917Z,66.21
2022-09-22T19:21:15.508Z,66.35
2022-09-22T19:24:18.204Z,66.21
2022-09-22T19:27:22.737Z,66.56
2022-09-22T19:30:30.890Z,66.42
2022-09-22T19:33:34.332Z,66.37
2022-09-22T19:36:37.247Z,66.58
2022-09-22T19:39:39.980Z,65.96
2022-09-22T19:42:42.674Z,67.32
2022-09-22T19:45:47.063Z,67.34
2022-09-22T19:48:49.700Z,67.17
2022-09-22T19:51:53.067Z,66.70
2022-09-22T19:54:55.662Z,67.04
2022-09-22T19:57:58.335Z,67.40
2022-09-22T20:01:02.317Z,68.04
2022-09-22T20:04:06.486Z,68.13
2022-09-22T20:07:11.054Z,68.07
2022-09-22T20:10:14.414Z,68.53
2022-09-22T20:13:30.992Z,68.58
2022-09-22T20:16:35.101Z,68.46
2022-09-22T20:19:39.296Z,67.76
2022-09-22T20:22:42.331Z,68.54
2022-09-22T20:25:45.050Z,68.74
2022-09-22T20:28:47.908Z,68.58
2022-09-22T20:31:52.227Z,68.32
2022-09-22T20:34:56.339Z,68.64
2022-09-22T20:37:59.510Z,68.31
2022-09-22T20:41:02.899Z,68.87
2022-09-22T20:44:05.713Z,68.70
2022-09-22T20:47:14.868Z,68.62
2022-09-22T20:50:18.005Z,68.11
2022-09-22T20:53:20.882Z,69.05
2022-09-22T20:56:23.616Z,68.99
2022-09-22T20:59:26.484Z,69.00
2022-09-22T21:02:30.926Z,69.00
2022-09-22T21:05:34.276Z,67.96
2022-09-22T21:08:56.928Z,69.28
2022-09-22T21:11:59.782Z,69.74
2022-09-22T21:15:02.777Z,69.84
2022-09-22T21:18:06.892Z,69.30
2022-09-22T21:21:10.246Z,69.43
2022-09-22T21:24:12.964Z,68.85
2022-09-22T21:27:16.264Z,69.41
2022-09-22T21:30:19.142Z,69.94
2022-09-22T21:33:23.441Z,70.00
2022-09-22T21:36:26.570Z,69.55
2022-09-22T21:39:29.411Z,70.27
2022-09-22T21:42:32.382Z,69.68
2022-09-22T21:45:35.219Z,70.04
2022-09-22T21:48:39.587Z,69.92
2022-09-22T21:55:07.636Z,69.83
2022-09-22T21:58:10.551Z,70.36
2022-09-22T22:01:14.835Z,70.15
2022-09-22T22:04:19.115Z,70.25
2022-09-22T22:07:23.447Z,70.75
2022-09-22T22:10:26.183Z,70.76
2022-09-22T22:13:28.731Z,70.20
2022-09-22T22:16:35.418Z,70.78
2022-09-22T22:19:39.334Z,71.10
2022-09-22T22:22:42.066Z,70.61
2022-09-22T22:25:44.745Z,70.66
2022-09-22T22:28:48.345Z,70.75
2022-09-22T22:31:52.196Z,71.00
2022-09-22T22:34:56.145Z,70.79
2022-09-22T22:37:58.820Z,70.36
2022-09-22T22:41:03.369Z,69.75
2022-09-22T22:44:07.284Z,70.87
2022-09-22T22:47:09.901Z,71.18
2022-09-22T22:50:13.915Z,70.69
2022-09-22T22:53:16.735Z,71.35
2022-09-22T22:56:22.405Z,70.55
2022-09-22T22:59:24.941Z,71.13
2022-09-22T23:02:30.773Z,71.51
2022-09-22T23:05:37.410Z,71.17
2022-09-22T23:08:44.134Z,71.45
2022-09-22T23:11:47.540Z,71.19
2022-09-22T23:14:50.579Z,71.59
2022-09-22T23:17:53.131Z,71.19
2022-09-22T23:20:57.157Z,71.61
2022-09-22T23:24:00.948Z,71.89
2022-09-22T23:27:03.614Z,71.49
2022-09-22T23:30:07.019Z,71.36
2022-09-22T23:33:11.240Z,72.14
2022-09-22T23:36:17.964Z,71.92
2022-09-22T23:39:20.657Z,71.46
2022-09-22T23:42:24.243Z,70.68
2022-09-22T23:45:29.565Z,70.76
2022-09-22T23:48:32.964Z,71.70
2022-09-22T23:51:37.036Z,71.71
2022-09-22T23:54:39.612Z,70.92
2022-09-22T23:57:42.347Z,71.76
